sensor_id;sensor_type;location;lat;lon;timestamp;P1;durP1;ratioP1;P2;durP2;ratioP2
21979;SDS011;11154;48.558;9.234;2022-12-18T00:00:30;46.83;;;26.05;;
21979;SDS011;11154;48.558;9.234;2022-12-18T00:02:31;47.35;;;26.17;;
21979;SDS011;11154;48.558;9.234;2022-12-18T00:04:34;44.50;;;25.65;;
21979;SDS011;11154;48.558;9.234;2022-12-18T00:06:36;49.72;;;26.98;;
21979;SDS011;11154;48.558;9.234;2022-12-18T00:08:38;50.33;;;28.08;;
21979;SDS011;11154;48.558;9.234;2022-12-18T00:10:39;52.90;;;28.60;;
21979;SDS011;11154;48.558;9.234;2022-12-18T00:12:41;49.40;;;26.95;;
21979;SDS011;11154;48.558;9.234;2022-12-18T00:14:43;48.67;;;27.13;;
21979;SDS011;11154;48.558;9.234;2022-12-18T00:16:45;48.78;;;27.52;;
21979;SDS011;11154;48.558;9.234;2022-12-18T00:18:47;47.50;;;26.92;;
21979;SDS011;11154;48.558;9.234;2022-12-18T00:20:50;51.97;;;27.00;;
21979;SDS011;11154;48.558;9.234;2022-12-18T00:22:52;47.80;;;25.58;;
21979;SDS011;11154;48.558;9.234;2022-12-18T00:24:54;45.63;;;25.15;;
21979;SDS011;11154;48.558;9.234;2022-12-18T00:26:55;43.03;;;24.63;;
21979;SDS011;11154;48.558;9.234;2022-12-18T00:28:58;48.25;;;27.23;;
21979;SDS011;11154;48.558;9.234;2022-12-18T00:31:00;48.50;;;25.88;;
21979;SDS011;11154;48.558;9.234;2022-12-18T00:33:02;48.83;;;27.20;;
21979;SDS011;11154;48.558;9.234;2022-12-18T00:35:04;46.92;;;26.77;;
21979;SDS011;11154;48.558;9.234;2022-12-18T00:37:08;48.15;;;25.27;;
21979;SDS011;11154;48.558;9.234;2022-12-18T00:39:10;47.85;;;25.20;;
21979;SDS011;11154;48.558;9.234;2022-12-18T00:41:12;45.65;;;25.83;;
21979;SDS011;11154;48.558;9.234;2022-12-18T00:43:36;42.90;;;24.70;;
21979;SDS011;11154;48.558;9.234;2022-12-18T00:45:38;45.85;;;25.33;;
21979;SDS011;11154;48.558;9.234;2022-12-18T00:47:41;43.60;;;25.25;;
21979;SDS011;11154;48.558;9.234;2022-12-18T00:49:42;44.05;;;24.63;;
21979;SDS011;11154;48.558;9.234;2022-12-18T00:51:44;45.58;;;25.48;;
21979;SDS011;11154;48.558;9.234;2022-12-18T00:53:47;41.38;;;23.92;;
21979;SDS011;11154;48.558;9.234;2022-12-18T00:55:48;43.13;;;24.23;;
21979;SDS011;11154;48.558;9.234;2022-12-18T00:57:50;44.13;;;24.48;;
21979;SDS011;11154;48.558;9.234;2022-12-18T00:59:52;36.90;;;22.38;;
21979;SDS011;11154;48.558;9.234;2022-12-18T01:01:53;45.88;;;24.52;;
21979;SDS011;11154;48.558;9.234;2022-12-18T01:03:55;40.50;;;23.17;;
21979;SDS011;11154;48.558;9.234;2022-12-18T01:05:57;34.95;;;20.77;;
21979;SDS011;11154;48.558;9.234;2022-12-18T01:07:58;35.90;;;21.20;;
21979;SDS011;11154;48.558;9.234;2022-12-18T01:10:01;32.97;;;20.80;;
21979;SDS011;11154;48.558;9.234;2022-12-18T01:12:04;36.47;;;21.05;;
21979;SDS011;11154;48.558;9.234;2022-12-18T01:14:06;35.05;;;20.85;;
21979;SDS011;11154;48.558;9.234;2022-12-18T01:16:08;36.67;;;21.75;;
21979;SDS011;11154;48.558;9.234;2022-12-18T01:18:12;33.72;;;21.40;;
21979;SDS011;11154;48.558;9.234;2022-12-18T01:20:14;35.33;;;21.02;;
21979;SDS011;11154;48.558;9.234;2022-12-18T01:22:15;33.20;;;19.73;;
21979;SDS011;11154;48.558;9.234;2022-12-18T01:24:17;32.08;;;19.73;;
21979;SDS011;11154;48.558;9.234;2022-12-18T01:26:20;37.13;;;20.67;;
21979;SDS011;11154;48.558;9.234;2022-12-18T01:28:22;35.03;;;22.30;;
21979;SDS011;11154;48.558;9.234;2022-12-18T01:30:23;36.25;;;21.33;;
21979;SDS011;11154;48.558;9.234;2022-12-18T01:32:25;33.03;;;20.33;;
21979;SDS011;11154;48.558;9.234;2022-12-18T01:34:27;33.42;;;20.13;;
21979;SDS011;11154;48.558;9.234;2022-12-18T01:36:29;32.67;;;20.58;;
21979;SDS011;11154;48.558;9.234;2022-12-18T01:38:32;31.05;;;20.30;;
21979;SDS011;11154;48.558;9.234;2022-12-18T01:40:33;34.65;;;20.35;;
21979;SDS011;11154;48.558;9.234;2022-12-18T01:42:36;33.08;;;20.40;;
21979;SDS011;11154;48.558;9.234;2022-12-18T01:44:55;36.95;;;21.55;;
21979;SDS011;11154;48.558;9.234;2022-12-18T01:47:02;33.80;;;20.55;;
21979;SDS011;11154;48.558;9.234;2022-12-18T01:49:03;32.67;;;20.38;;
21979;SDS011;11154;48.558;9.234;2022-12-18T01:51:06;33.17;;;20.30;;
21979;SDS011;11154;48.558;9.234;2022-12-18T01:53:11;35.85;;;21.92;;
21979;SDS011;11154;48.558;9.234;2022-12-18T01:55:16;39.83;;;20.95;;
21979;SDS011;11154;48.558;9.234;2022-12-18T01:57:20;33.72;;;20.55;;
21979;SDS011;11154;48.558;9.234;2022-12-18T01:59:23;36.40;;;21.92;;
21979;SDS011;11154;48.558;9.234;2022-12-18T02:01:25;33.25;;;23.70;;
21979;SDS011;11154;48.558;9.234;2022-12-18T02:03:27;33.83;;;23.50;;
21979;SDS011;11154;48.558;9.234;2022-12-18T02:05:36;34.78;;;24.73;;
21979;SDS011;11154;48.558;9.234;2022-12-18T02:07:46;37.63;;;25.73;;
21979;SDS011;11154;48.558;9.234;2022-12-18T02:09:56;34.28;;;23.98;;
21979;SDS011;11154;48.558;9.234;2022-12-18T02:12:06;37.67;;;25.73;;
21979;SDS011;11154;48.558;9.234;2022-12-18T02:14:17;37.70;;;26.15;;
21979;SDS011;11154;48.558;9.234;2022-12-18T02:16:28;35.55;;;24.25;;
21979;SDS011;11154;48.558;9.234;2022-12-18T02:18:43;41.35;;;27.67;;
21979;SDS011;11154;48.558;9.234;2022-12-18T02:20:49;37.83;;;26.20;;
21979;SDS011;11154;48.558;9.234;2022-12-18T02:23:01;38.95;;;27.20;;
21979;SDS011;11154;48.558;9.234;2022-12-18T02:25:13;37.47;;;26.67;;
21979;SDS011;11154;48.558;9.234;2022-12-18T02:27:27;37.20;;;25.85;;
21979;SDS011;11154;48.558;9.234;2022-12-18T02:29:34;37.70;;;26.30;;
21979;SDS011;11154;48.558;9.234;2022-12-18T02:31:43;36.67;;;25.83;;
21979;SDS011;11154;48.558;9.234;2022-12-18T02:33:50;38.80;;;26.98;;
21979;SDS011;11154;48.558;9.234;2022-12-18T02:35:54;37.75;;;26.05;;
21979;SDS011;11154;48.558;9.234;2022-12-18T02:37:58;36.30;;;24.98;;
21979;SDS011;11154;48.558;9.234;2022-12-18T02:40:00;37.08;;;26.20;;
21979;SDS011;11154;48.558;9.234;2022-12-18T02:42:04;38.47;;;26.30;;
21979;SDS011;11154;48.558;9.234;2022-12-18T02:44:10;39.67;;;26.63;;
21979;SDS011;11154;48.558;9.234;2022-12-18T02:46:25;38.75;;;27.85;;
21979;SDS011;11154;48.558;9.234;2022-12-18T02:48:30;37.65;;;27.65;;
21979;SDS011;11154;48.558;9.234;2022-12-18T02:50:35;39.50;;;27.02;;
21979;SDS011;11154;48.558;9.234;2022-12-18T02:52:48;40.95;;;27.85;;
21979;SDS011;11154;48.558;9.234;2022-12-18T02:54:57;40.90;;;27.15;;
21979;SDS011;11154;48.558;9.234;2022-12-18T02:57:11;39.53;;;27.48;;
21979;SDS011;11154;48.558;9.234;2022-12-18T02:59:21;38.33;;;26.52;;
21979;SDS011;11154;48.558;9.234;2022-12-18T03:01:33;39.60;;;27.45;;
21979;SDS011;11154;48.558;9.234;2022-12-18T03:03:39;36.50;;;25.13;;
21979;SDS011;11154;48.558;9.234;2022-12-18T03:05:48;38.33;;;25.45;;
21979;SDS011;11154;48.558;9.234;2022-12-18T03:07:55;41.17;;;28.30;;
21979;SDS011;11154;48.558;9.234;2022-12-18T03:10:01;39.30;;;27.17;;
21979;SDS011;11154;48.558;9.234;2022-12-18T03:12:04;40.72;;;27.48;;
21979;SDS011;11154;48.558;9.234;2022-12-18T03:14:25;39.13;;;27.00;;
21979;SDS011;11154;48.558;9.234;2022-12-18T03:16:30;39.72;;;26.30;;
21979;SDS011;11154;48.558;9.234;2022-12-18T03:18:34;39.90;;;26.50;;
21979;SDS011;11154;48.558;9.234;2022-12-18T03:20:37;42.38;;;28.15;;
21979;SDS011;11154;48.558;9.234;2022-12-18T03:22:42;39.97;;;27.30;;
21979;SDS011;11154;48.558;9.234;2022-12-18T03:24:45;41.75;;;27.83;;
21979;SDS011;11154;48.558;9.234;2022-12-18T03:26:50;37.63;;;26.00;;
21979;SDS011;11154;48.558;9.234;2022-12-18T03:28:56;39.80;;;27.02;;
21979;SDS011;11154;48.558;9.234;2022-12-18T03:31:05;39.80;;;27.35;;
21979;SDS011;11154;48.558;9.234;2022-12-18T03:33:12;37.83;;;26.05;;
21979;SDS011;11154;48.558;9.234;2022-12-18T03:35:22;40.83;;;27.63;;
21979;SDS011;11154;48.558;9.234;2022-12-18T03:37:30;40.47;;;28.77;;
21979;SDS011;11154;48.558;9.234;2022-12-18T03:39:33;40.28;;;28.05;;
21979;SDS011;11154;48.558;9.234;2022-12-18T03:41:37;39.85;;;27.00;;
21979;SDS011;11154;48.558;9.234;2022-12-18T03:45:51;41.38;;;27.83;;
21979;SDS011;11154;48.558;9.234;2022-12-18T03:47:59;42.17;;;26.83;;
21979;SDS011;11154;48.558;9.234;2022-12-18T03:50:07;42.08;;;28.42;;
21979;SDS011;11154;48.558;9.234;2022-12-18T03:52:17;42.45;;;27.92;;
21979;SDS011;11154;48.558;9.234;2022-12-18T03:54:22;43.65;;;28.55;;
21979;SDS011;11154;48.558;9.234;2022-12-18T03:56:28;43.20;;;27.90;;
21979;SDS011;11154;48.558;9.234;2022-12-18T03:58:33;50.38;;;30.30;;
21979;SDS011;11154;48.558;9.234;2022-12-18T04:00:37;53.90;;;27.65;;
21979;SDS011;11154;48.558;9.234;2022-12-18T04:02:42;55.53;;;27.42;;
21979;SDS011;11154;48.558;9.234;2022-12-18T04:04:49;52.42;;;26.75;;
21979;SDS011;11154;48.558;9.234;2022-12-18T04:06:53;57.03;;;26.08;;
21979;SDS011;11154;48.558;9.234;2022-12-18T04:08:56;58.05;;;26.48;;
21979;SDS011;11154;48.558;9.234;2022-12-18T04:10:59;51.08;;;24.60;;
21979;SDS011;11154;48.558;9.234;2022-12-18T04:13:01;47.75;;;24.98;;
21979;SDS011;11154;48.558;9.234;2022-12-18T04:15:03;55.10;;;25.92;;
21979;SDS011;11154;48.558;9.234;2022-12-18T04:17:05;53.58;;;25.73;;
21979;SDS011;11154;48.558;9.234;2022-12-18T04:19:07;45.53;;;24.40;;
21979;SDS011;11154;48.558;9.234;2022-12-18T04:21:10;46.42;;;23.65;;
21979;SDS011;11154;48.558;9.234;2022-12-18T04:23:12;50.60;;;25.67;;
21979;SDS011;11154;48.558;9.234;2022-12-18T04:25:13;48.33;;;24.42;;
21979;SDS011;11154;48.558;9.234;2022-12-18T04:27:15;50.55;;;23.77;;
21979;SDS011;11154;48.558;9.234;2022-12-18T04:29:17;45.50;;;24.92;;
21979;SDS011;11154;48.558;9.234;2022-12-18T04:31:18;47.10;;;24.05;;
21979;SDS011;11154;48.558;9.234;2022-12-18T04:33:20;44.80;;;24.55;;
21979;SDS011;11154;48.558;9.234;2022-12-18T04:35:22;47.67;;;24.05;;
21979;SDS011;11154;48.558;9.234;2022-12-18T04:37:25;45.70;;;24.55;;
21979;SDS011;11154;48.558;9.234;2022-12-18T04:39:26;45.17;;;23.60;;
21979;SDS011;11154;48.558;9.234;2022-12-18T04:41:28;46.35;;;24.20;;
21979;SDS011;11154;48.558;9.234;2022-12-18T04:43:29;43.10;;;24.63;;
21979;SDS011;11154;48.558;9.234;2022-12-18T04:45:33;44.33;;;23.48;;
21979;SDS011;11154;48.558;9.234;2022-12-18T04:47:34;45.88;;;24.45;;
21979;SDS011;11154;48.558;9.234;2022-12-18T04:49:36;47.00;;;24.67;;
21979;SDS011;11154;48.558;9.234;2022-12-18T04:51:38;43.22;;;23.63;;
21979;SDS011;11154;48.558;9.234;2022-12-18T04:53:41;40.20;;;23.10;;
21979;SDS011;11154;48.558;9.234;2022-12-18T04:55:42;38.60;;;22.58;;
21979;SDS011;11154;48.558;9.234;2022-12-18T04:57:44;39.88;;;22.65;;
21979;SDS011;11154;48.558;9.234;2022-12-18T04:59:46;39.55;;;22.77;;
21979;SDS011;11154;48.558;9.234;2022-12-18T05:01:47;40.42;;;22.30;;
21979;SDS011;11154;48.558;9.234;2022-12-18T05:03:50;37.75;;;21.63;;
21979;SDS011;11154;48.558;9.234;2022-12-18T05:05:52;41.72;;;23.05;;
21979;SDS011;11154;48.558;9.234;2022-12-18T05:07:54;37.30;;;21.88;;
21979;SDS011;11154;48.558;9.234;2022-12-18T05:09:57;30.25;;;18.45;;
21979;SDS011;11154;48.558;9.234;2022-12-18T05:11:58;42.20;;;22.83;;
21979;SDS011;11154;48.558;9.234;2022-12-18T05:14:00;41.13;;;23.40;;
21979;SDS011;11154;48.558;9.234;2022-12-18T05:16:02;39.50;;;23.58;;
21979;SDS011;11154;48.558;9.234;2022-12-18T05:18:04;47.10;;;25.30;;
21979;SDS011;11154;48.558;9.234;2022-12-18T05:20:06;43.28;;;23.92;;
21979;SDS011;11154;48.558;9.234;2022-12-18T05:22:08;36.53;;;21.33;;
21979;SDS011;11154;48.558;9.234;2022-12-18T05:24:09;35.88;;;21.10;;
21979;SDS011;11154;48.558;9.234;2022-12-18T05:26:14;40.60;;;23.35;;
21979;SDS011;11154;48.558;9.234;2022-12-18T05:28:17;41.33;;;22.77;;
21979;SDS011;11154;48.558;9.234;2022-12-18T05:30:19;38.95;;;21.45;;
21979;SDS011;11154;48.558;9.234;2022-12-18T05:32:21;44.17;;;22.67;;
21979;SDS011;11154;48.558;9.234;2022-12-18T05:34:22;39.15;;;22.05;;
21979;SDS011;11154;48.558;9.234;2022-12-18T05:36:24;37.90;;;21.45;;
21979;SDS011;11154;48.558;9.234;2022-12-18T05:38:26;38.00;;;22.40;;
21979;SDS011;11154;48.558;9.234;2022-12-18T05:40:29;44.53;;;23.25;;
21979;SDS011;11154;48.558;9.234;2022-12-18T05:42:32;43.30;;;22.92;;
21979;SDS011;11154;48.558;9.234;2022-12-18T05:44:34;44.38;;;23.65;;
21979;SDS011;11154;48.558;9.234;2022-12-18T05:46:35;48.20;;;26.63;;
21979;SDS011;11154;48.558;9.234;2022-12-18T05:48:37;48.75;;;25.98;;
21979;SDS011;11154;48.558;9.234;2022-12-18T05:50:40;48.60;;;24.20;;
21979;SDS011;11154;48.558;9.234;2022-12-18T05:52:42;44.00;;;22.92;;
21979;SDS011;11154;48.558;9.234;2022-12-18T05:54:44;44.33;;;23.45;;
21979;SDS011;11154;48.558;9.234;2022-12-18T05:56:45;46.53;;;23.73;;
21979;SDS011;11154;48.558;9.234;2022-12-18T05:58:50;45.03;;;23.38;;
21979;SDS011;11154;48.558;9.234;2022-12-18T06:00:53;45.83;;;24.73;;
21979;SDS011;11154;48.558;9.234;2022-12-18T06:02:54;45.35;;;24.13;;
21979;SDS011;11154;48.558;9.234;2022-12-18T06:04:56;47.70;;;25.52;;
21979;SDS011;11154;48.558;9.234;2022-12-18T06:06:58;44.28;;;23.77;;
21979;SDS011;11154;48.558;9.234;2022-12-18T06:08:59;49.00;;;25.65;;
21979;SDS011;11154;48.558;9.234;2022-12-18T06:11:01;47.80;;;24.63;;
21979;SDS011;11154;48.558;9.234;2022-12-18T06:13:03;45.17;;;24.75;;
21979;SDS011;11154;48.558;9.234;2022-12-18T06:15:07;40.85;;;22.58;;
21979;SDS011;11154;48.558;9.234;2022-12-18T06:17:09;42.13;;;21.75;;
21979;SDS011;11154;48.558;9.234;2022-12-18T06:19:13;48.92;;;26.92;;
21979;SDS011;11154;48.558;9.234;2022-12-18T06:21:16;46.95;;;25.90;;
21979;SDS011;11154;48.558;9.234;2022-12-18T06:23:18;43.83;;;22.83;;
21979;SDS011;11154;48.558;9.234;2022-12-18T06:25:21;46.47;;;24.13;;
21979;SDS011;11154;48.558;9.234;2022-12-18T06:27:22;44.92;;;24.23;;
21979;SDS011;11154;48.558;9.234;2022-12-18T06:29:24;46.08;;;24.00;;
21979;SDS011;11154;48.558;9.234;2022-12-18T06:31:27;42.35;;;22.88;;
21979;SDS011;11154;48.558;9.234;2022-12-18T06:33:28;41.65;;;23.88;;
21979;SDS011;11154;48.558;9.234;2022-12-18T06:35:31;42.72;;;23.75;;
21979;SDS011;11154;48.558;9.234;2022-12-18T06:37:33;41.58;;;22.48;;
21979;SDS011;11154;48.558;9.234;2022-12-18T06:39:34;38.80;;;21.65;;
21979;SDS011;11154;48.558;9.234;2022-12-18T06:41:36;37.88;;;21.02;;
21979;SDS011;11154;48.558;9.234;2022-12-18T06:43:37;38.90;;;22.27;;
21979;SDS011;11154;48.558;9.234;2022-12-18T06:45:39;39.50;;;21.73;;
21979;SDS011;11154;48.558;9.234;2022-12-18T06:47:43;44.25;;;22.10;;
21979;SDS011;11154;48.558;9.234;2022-12-18T06:49:45;41.08;;;22.05;;
21979;SDS011;11154;48.558;9.234;2022-12-18T06:51:46;33.95;;;19.73;;
21979;SDS011;11154;48.558;9.234;2022-12-18T06:53:48;50.40;;;26.42;;
21979;SDS011;11154;48.558;9.234;2022-12-18T06:55:50;42.47;;;23.20;;
21979;SDS011;11154;48.558;9.234;2022-12-18T06:57:52;44.38;;;23.73;;
21979;SDS011;11154;48.558;9.234;2022-12-18T06:59:53;42.33;;;23.02;;
21979;SDS011;11154;48.558;9.234;2022-12-18T07:01:55;44.08;;;27.30;;
21979;SDS011;11154;48.558;9.234;2022-12-18T07:03:58;42.83;;;23.10;;
21979;SDS011;11154;48.558;9.234;2022-12-18T07:06:00;49.35;;;26.80;;
21979;SDS011;11154;48.558;9.234;2022-12-18T07:08:01;44.80;;;25.08;;
21979;SDS011;11154;48.558;9.234;2022-12-18T07:10:03;47.88;;;24.92;;
21979;SDS011;11154;48.558;9.234;2022-12-18T07:12:05;42.00;;;23.40;;
21979;SDS011;11154;48.558;9.234;2022-12-18T07:14:08;40.83;;;22.98;;
21979;SDS011;11154;48.558;9.234;2022-12-18T07:16:10;42.28;;;23.35;;
21979;SDS011;11154;48.558;9.234;2022-12-18T07:18:13;40.65;;;22.05;;
21979;SDS011;11154;48.558;9.234;2022-12-18T07:20:17;39.15;;;21.73;;
21979;SDS011;11154;48.558;9.234;2022-12-18T07:22:18;43.88;;;22.80;;
21979;SDS011;11154;48.558;9.234;2022-12-18T07:24:20;41.35;;;22.50;;
21979;SDS011;11154;48.558;9.234;2022-12-18T07:26:22;44.70;;;23.77;;
21979;SDS011;11154;48.558;9.234;2022-12-18T07:28:23;40.58;;;22.73;;
21979;SDS011;11154;48.558;9.234;2022-12-18T07:30:25;40.33;;;22.58;;
21979;SDS011;11154;48.558;9.234;2022-12-18T07:32:27;41.72;;;22.90;;
21979;SDS011;11154;48.558;9.234;2022-12-18T07:34:29;42.20;;;22.67;;
21979;SDS011;11154;48.558;9.234;2022-12-18T07:36:32;42.30;;;24.65;;
21979;SDS011;11154;48.558;9.234;2022-12-18T07:38:34;46.75;;;22.50;;
21979;SDS011;11154;48.558;9.234;2022-12-18T07:40:36;41.47;;;22.00;;
21979;SDS011;11154;48.558;9.234;2022-12-18T07:42:38;41.92;;;23.17;;
21979;SDS011;11154;48.558;9.234;2022-12-18T07:44:39;41.95;;;22.73;;
21979;SDS011;11154;48.558;9.234;2022-12-18T07:46:41;46.20;;;23.90;;
21979;SDS011;11154;48.558;9.234;2022-12-18T07:48:43;37.65;;;22.02;;
21979;SDS011;11154;48.558;9.234;2022-12-18T07:50:45;42.70;;;23.08;;
21979;SDS011;11154;48.558;9.234;2022-12-18T07:52:48;39.78;;;22.02;;
21979;SDS011;11154;48.558;9.234;2022-12-18T07:54:49;44.42;;;22.60;;
21979;SDS011;11154;48.558;9.234;2022-12-18T07:56:51;47.90;;;25.20;;
21979;SDS011;11154;48.558;9.234;2022-12-18T07:58:53;40.50;;;22.15;;
21979;SDS011;11154;48.558;9.234;2022-12-18T08:01:01;38.85;;;22.45;;
21979;SDS011;11154;48.558;9.234;2022-12-18T08:03:03;45.53;;;23.52;;
21979;SDS011;11154;48.558;9.234;2022-12-18T08:05:05;44.97;;;23.42;;
21979;SDS011;11154;48.558;9.234;2022-12-18T08:07:07;77.28;;;39.90;;
21979;SDS011;11154;48.558;9.234;2022-12-18T08:09:10;79.95;;;42.55;;
21979;SDS011;11154;48.558;9.234;2022-12-18T08:11:12;98.32;;;49.92;;
21979;SDS011;11154;48.558;9.234;2022-12-18T08:13:14;64.13;;;34.60;;
21979;SDS011;11154;48.558;9.234;2022-12-18T08:15:15;70.43;;;39.03;;
21979;SDS011;11154;48.558;9.234;2022-12-18T08:17:18;61.95;;;33.30;;
21979;SDS011;11154;48.558;9.234;2022-12-18T08:19:20;56.28;;;31.70;;
21979;SDS011;11154;48.558;9.234;2022-12-18T08:21:23;54.15;;;30.08;;
21979;SDS011;11154;48.558;9.234;2022-12-18T08:23:26;52.45;;;27.67;;
21979;SDS011;11154;48.558;9.234;2022-12-18T08:25:31;45.90;;;25.35;;
21979;SDS011;11154;48.558;9.234;2022-12-18T08:27:33;45.13;;;24.13;;
21979;SDS011;11154;48.558;9.234;2022-12-18T08:29:34;44.28;;;24.45;;
21979;SDS011;11154;48.558;9.234;2022-12-18T08:31:36;45.42;;;25.33;;
21979;SDS011;11154;48.558;9.234;2022-12-18T08:33:38;45.13;;;23.95;;
21979;SDS011;11154;48.558;9.234;2022-12-18T08:35:40;42.97;;;22.80;;
21979;SDS011;11154;48.558;9.234;2022-12-18T08:37:41;47.03;;;24.70;;
21979;SDS011;11154;48.558;9.234;2022-12-18T08:39:43;48.67;;;24.60;;
21979;SDS011;11154;48.558;9.234;2022-12-18T08:41:46;44.72;;;24.95;;
21979;SDS011;11154;48.558;9.234;2022-12-18T08:44:08;45.67;;;23.63;;
21979;SDS011;11154;48.558;9.234;2022-12-18T08:46:27;53.95;;;26.27;;
21979;SDS011;11154;48.558;9.234;2022-12-18T08:48:34;45.42;;;24.45;;
21979;SDS011;11154;48.558;9.234;2022-12-18T08:50:36;47.15;;;23.58;;
21979;SDS011;11154;48.558;9.234;2022-12-18T08:52:38;46.17;;;26.13;;
21979;SDS011;11154;48.558;9.234;2022-12-18T08:54:40;51.13;;;26.50;;
21979;SDS011;11154;48.558;9.234;2022-12-18T08:56:41;51.10;;;26.33;;
21979;SDS011;11154;48.558;9.234;2022-12-18T08:58:44;49.08;;;26.42;;
21979;SDS011;11154;48.558;9.234;2022-12-18T09:00:46;46.65;;;26.02;;
21979;SDS011;11154;48.558;9.234;2022-12-18T09:02:48;49.42;;;26.13;;
21979;SDS011;11154;48.558;9.234;2022-12-18T09:04:49;52.55;;;27.63;;
21979;SDS011;11154;48.558;9.234;2022-12-18T09:06:53;51.25;;;26.80;;
21979;SDS011;11154;48.558;9.234;2022-12-18T09:08:55;48.78;;;26.73;;
21979;SDS011;11154;48.558;9.234;2022-12-18T09:10:58;51.40;;;28.88;;
21979;SDS011;11154;48.558;9.234;2022-12-18T09:13:00;51.35;;;27.88;;
21979;SDS011;11154;48.558;9.234;2022-12-18T09:15:03;49.17;;;26.65;;
21979;SDS011;11154;48.558;9.234;2022-12-18T09:17:05;51.83;;;26.33;;
21979;SDS011;11154;48.558;9.234;2022-12-18T09:19:07;46.88;;;25.00;;
21979;SDS011;11154;48.558;9.234;2022-12-18T09:21:10;45.97;;;25.27;;
21979;SDS011;11154;48.558;9.234;2022-12-18T09:23:13;47.53;;;25.92;;
21979;SDS011;11154;48.558;9.234;2022-12-18T09:25:15;47.55;;;28.02;;
21979;SDS011;11154;48.558;9.234;2022-12-18T09:27:17;48.50;;;27.15;;
21979;SDS011;11154;48.558;9.234;2022-12-18T09:29:19;49.28;;;27.98;;
21979;SDS011;11154;48.558;9.234;2022-12-18T09:31:22;52.72;;;28.27;;
21979;SDS011;11154;48.558;9.234;2022-12-18T09:33:24;51.83;;;27.90;;
21979;SDS011;11154;48.558;9.234;2022-12-18T09:35:26;49.63;;;27.42;;
21979;SDS011;11154;48.558;9.234;2022-12-18T09:37:28;52.78;;;26.20;;
21979;SDS011;11154;48.558;9.234;2022-12-18T09:39:29;50.22;;;27.38;;
21979;SDS011;11154;48.558;9.234;2022-12-18T09:41:33;51.88;;;26.98;;
21979;SDS011;11154;48.558;9.234;2022-12-18T09:43:42;52.60;;;28.55;;
21979;SDS011;11154;48.558;9.234;2022-12-18T09:45:49;51.67;;;27.38;;
21979;SDS011;11154;48.558;9.234;2022-12-18T09:47:56;52.22;;;30.45;;
21979;SDS011;11154;48.558;9.234;2022-12-18T09:49:58;48.03;;;26.95;;
21979;SDS011;11154;48.558;9.234;2022-12-18T09:52:04;55.25;;;30.05;;
21979;SDS011;11154;48.558;9.234;2022-12-18T09:54:11;55.40;;;31.23;;
21979;SDS011;11154;48.558;9.234;2022-12-18T09:56:18;50.67;;;27.92;;
21979;SDS011;11154;48.558;9.234;2022-12-18T09:58:24;57.42;;;29.77;;
21979;SDS011;11154;48.558;9.234;2022-12-18T10:00:29;52.53;;;27.42;;
21979;SDS011;11154;48.558;9.234;2022-12-18T10:02:32;55.45;;;27.95;;
21979;SDS011;11154;48.558;9.234;2022-12-18T10:04:35;55.75;;;29.65;;
21979;SDS011;11154;48.558;9.234;2022-12-18T10:06:38;54.75;;;29.25;;
21979;SDS011;11154;48.558;9.234;2022-12-18T10:08:46;54.72;;;28.58;;
21979;SDS011;11154;48.558;9.234;2022-12-18T10:10:55;54.70;;;29.27;;
21979;SDS011;11154;48.558;9.234;2022-12-18T10:13:05;55.70;;;29.13;;
21979;SDS011;11154;48.558;9.234;2022-12-18T10:15:16;53.15;;;28.08;;
21979;SDS011;11154;48.558;9.234;2022-12-18T10:17:26;55.92;;;28.20;;
21979;SDS011;11154;48.558;9.234;2022-12-18T10:19:39;57.40;;;27.90;;
21979;SDS011;11154;48.558;9.234;2022-12-18T10:21:51;50.78;;;27.40;;
21979;SDS011;11154;48.558;9.234;2022-12-18T10:24:08;70.38;;;38.40;;
21979;SDS011;11154;48.558;9.234;2022-12-18T10:26:19;52.30;;;27.38;;
21979;SDS011;11154;48.558;9.234;2022-12-18T10:28:21;52.85;;;28.50;;
21979;SDS011;11154;48.558;9.234;2022-12-18T10:30:25;54.58;;;28.50;;
21979;SDS011;11154;48.558;9.234;2022-12-18T10:32:28;55.08;;;28.58;;
21979;SDS011;11154;48.558;9.234;2022-12-18T10:34:31;54.13;;;30.85;;
21979;SDS011;11154;48.558;9.234;2022-12-18T10:36:35;55.60;;;30.00;;
21979;SDS011;11154;48.558;9.234;2022-12-18T10:38:37;52.03;;;30.38;;
21979;SDS011;11154;48.558;9.234;2022-12-18T10:40:47;53.88;;;29.95;;
21979;SDS011;11154;48.558;9.234;2022-12-18T10:42:59;58.78;;;31.85;;
21979;SDS011;11154;48.558;9.234;2022-12-18T10:45:08;64.18;;;33.58;;
21979;SDS011;11154;48.558;9.234;2022-12-18T10:47:14;57.42;;;32.90;;
21979;SDS011;11154;48.558;9.234;2022-12-18T10:49:19;66.72;;;33.95;;
21979;SDS011;11154;48.558;9.234;2022-12-18T10:51:27;59.92;;;32.17;;
21979;SDS011;11154;48.558;9.234;2022-12-18T10:53:32;54.22;;;29.55;;
21979;SDS011;11154;48.558;9.234;2022-12-18T10:55:37;54.30;;;29.25;;
21979;SDS011;11154;48.558;9.234;2022-12-18T10:57:40;53.00;;;29.63;;
21979;SDS011;11154;48.558;9.234;2022-12-18T10:59:49;52.17;;;31.02;;
21979;SDS011;11154;48.558;9.234;2022-12-18T11:01:53;53.88;;;29.40;;
21979;SDS011;11154;48.558;9.234;2022-12-18T11:04:01;57.17;;;30.85;;
21979;SDS011;11154;48.558;9.234;2022-12-18T11:06:09;59.78;;;32.13;;
21979;SDS011;11154;48.558;9.234;2022-12-18T11:08:19;65.53;;;35.38;;
21979;SDS011;11154;48.558;9.234;2022-12-18T11:10:25;55.63;;;30.73;;
21979;SDS011;11154;48.558;9.234;2022-12-18T11:12:30;55.60;;;30.13;;
21979;SDS011;11154;48.558;9.234;2022-12-18T11:14:32;52.90;;;29.65;;
21979;SDS011;11154;48.558;9.234;2022-12-18T11:16:44;55.60;;;28.17;;
21979;SDS011;11154;48.558;9.234;2022-12-18T11:18:47;51.83;;;28.05;;
21979;SDS011;11154;48.558;9.234;2022-12-18T11:20:50;54.47;;;30.85;;
21979;SDS011;11154;48.558;9.234;2022-12-18T11:22:56;102.28;;;56.17;;
21979;SDS011;11154;48.558;9.234;2022-12-18T11:25:00;78.30;;;44.58;;
21979;SDS011;11154;48.558;9.234;2022-12-18T11:27:05;70.82;;;38.95;;
21979;SDS011;11154;48.558;9.234;2022-12-18T11:29:17;60.60;;;32.72;;
21979;SDS011;11154;48.558;9.234;2022-12-18T11:31:24;53.90;;;29.45;;
21979;SDS011;11154;48.558;9.234;2022-12-18T11:33:27;46.15;;;27.67;;
21979;SDS011;11154;48.558;9.234;2022-12-18T11:35:35;50.35;;;27.40;;
21979;SDS011;11154;48.558;9.234;2022-12-18T11:37:42;51.60;;;28.27;;
21979;SDS011;11154;48.558;9.234;2022-12-18T11:39:49;56.80;;;31.13;;
21979;SDS011;11154;48.558;9.234;2022-12-18T11:41:58;53.25;;;28.50;;
21979;SDS011;11154;48.558;9.234;2022-12-18T11:44:13;55.85;;;31.63;;
21979;SDS011;11154;48.558;9.234;2022-12-18T11:46:25;50.78;;;28.65;;
21979;SDS011;11154;48.558;9.234;2022-12-18T11:48:34;52.38;;;30.13;;
21979;SDS011;11154;48.558;9.234;2022-12-18T11:50:44;54.70;;;28.67;;
21979;SDS011;11154;48.558;9.234;2022-12-18T11:52:49;64.57;;;35.28;;
21979;SDS011;11154;48.558;9.234;2022-12-18T11:54:51;65.38;;;34.33;;
21979;SDS011;11154;48.558;9.234;2022-12-18T11:56:55;69.20;;;37.28;;
21979;SDS011;11154;48.558;9.234;2022-12-18T11:59:06;69.10;;;35.30;;
21979;SDS011;11154;48.558;9.234;2022-12-18T12:01:22;75.43;;;39.72;;
21979;SDS011;11154;48.558;9.234;2022-12-18T12:06:08;82.75;;;44.13;;
21979;SDS011;11154;48.558;9.234;2022-12-18T12:08:18;70.88;;;38.05;;
21979;SDS011;11154;48.558;9.234;2022-12-18T12:10:28;71.53;;;38.97;;